TAP59L EDDH-ESGG
Flight info
| Callsign | TAP59L |
|---|---|
| Flight time | 0h 47m |
| Altitude | 33000 |
| Route | SOKWO1G/33 SOKWO T814 EXNEL M105 AMRAK DCT GOTEX N873 LOBBI |
| Aircraft | A321/M-SDE3FGHIRWY/LB1 |
Departure
| Time | 2026-05-07 10:30 |
|---|---|
| Airport | Hamburg Helmut Schmidt Airport (EDDH) |
Arrival
| Time | 2026-05-07 11:17 |
|---|---|
| Airport | Göteborg Landvetter Airport (ESGG) |
| Time | Latitude | Longitude | Altitude | Speed | Heading |
|---|---|---|---|---|---|
| 2026-05-07 09:41 | 53.63295 | 10.00349 | 46 ft | 0 kts | 87° |
| 2026-05-07 10:12 | 53.63294 | 10.00316 | 46 ft | 4 kts | 94° |
| 2026-05-07 10:12 | 53.63298 | 10.00271 | 43 ft | 4 kts | 112° |
| 2026-05-07 10:12 | 53.63312 | 10.00238 | 43 ft | 4 kts | 159° |
| 2026-05-07 10:13 | 53.63319 | 10.00234 | 42 ft | 0 kts | 176° |
| 2026-05-07 10:17 | 53.63313 | 10.00234 | 43 ft | 2 kts | 176° |
| 2026-05-07 10:18 | 53.63288 | 10.00238 | 43 ft | 7 kts | 175° |
| 2026-05-07 10:18 | 53.63236 | 10.00246 | 46 ft | 8 kts | 175° |
| 2026-05-07 10:18 | 53.63176 | 10.00253 | 45 ft | 9 kts | 176° |
| 2026-05-07 10:18 | 53.63108 | 10.00261 | 45 ft | 11 kts | 176° |
| 2026-05-07 10:19 | 53.63035 | 10.00230 | 45 ft | 11 kts | 212° |
| 2026-05-07 10:19 | 53.62969 | 10.00154 | 46 ft | 12 kts | 212° |
| 2026-05-07 10:19 | 53.62899 | 10.00081 | 45 ft | 12 kts | 210° |
| 2026-05-07 10:19 | 53.62863 | 10.00039 | 46 ft | 0 kts | 216° |
| 2026-05-07 10:20 | 53.62847 | 10.00017 | 45 ft | 14 kts | 219° |
| 2026-05-07 10:20 | 53.62717 | 9.99882 | 45 ft | 24 kts | 206° |
| 2026-05-07 10:20 | 53.62634 | 9.99714 | 46 ft | 20 kts | 258° |
| 2026-05-07 10:20 | 53.62610 | 9.99508 | 46 ft | 0 kts | 259° |
| 2026-05-07 10:21 | 53.62607 | 9.99489 | 42 ft | 3 kts | 259° |
| 2026-05-07 10:21 | 53.62602 | 9.99441 | 45 ft | 5 kts | 259° |
| 2026-05-07 10:21 | 53.62594 | 9.99370 | 45 ft | 7 kts | 259° |
| 2026-05-07 10:21 | 53.62584 | 9.99279 | 45 ft | 9 kts | 258° |
| 2026-05-07 10:22 | 53.62572 | 9.99169 | 45 ft | 10 kts | 259° |
| 2026-05-07 10:22 | 53.62559 | 9.99044 | 44 ft | 11 kts | 260° |
| 2026-05-07 10:22 | 53.62544 | 9.98906 | 44 ft | 12 kts | 258° |
| 2026-05-07 10:22 | 53.62524 | 9.98759 | 43 ft | 13 kts | 259° |
| 2026-05-07 10:23 | 53.62507 | 9.98601 | 43 ft | 14 kts | 259° |
| 2026-05-07 10:23 | 53.62488 | 9.98441 | 42 ft | 13 kts | 258° |
| 2026-05-07 10:23 | 53.62472 | 9.98303 | 42 ft | 1 kts | 261° |
| 2026-05-07 10:23 | 53.62470 | 9.98280 | 42 ft | 3 kts | 261° |
| 2026-05-07 10:24 | 53.62463 | 9.98229 | 40 ft | 5 kts | 253° |
| 2026-05-07 10:24 | 53.62447 | 9.98159 | 39 ft | 7 kts | 246° |
| 2026-05-07 10:24 | 53.62422 | 9.98075 | 41 ft | 9 kts | 240° |
| 2026-05-07 10:24 | 53.62383 | 9.97988 | 41 ft | 10 kts | 229° |
| 2026-05-07 10:25 | 53.62334 | 9.97898 | 41 ft | 11 kts | 229° |
| 2026-05-07 10:25 | 53.62284 | 9.97797 | 41 ft | 12 kts | 230° |
| 2026-05-07 10:25 | 53.62232 | 9.97692 | 40 ft | 12 kts | 230° |
| 2026-05-07 10:25 | 53.62177 | 9.97577 | 40 ft | 15 kts | 231° |
| 2026-05-07 10:26 | 53.62099 | 9.97420 | 40 ft | 19 kts | 231° |
| 2026-05-07 10:26 | 53.62011 | 9.97244 | 39 ft | 20 kts | 230° |
| 2026-05-07 10:26 | 53.61922 | 9.97063 | 39 ft | 19 kts | 230° |
| 2026-05-07 10:26 | 53.61839 | 9.96896 | 39 ft | 15 kts | 228° |
| 2026-05-07 10:27 | 53.61770 | 9.96757 | 38 ft | 16 kts | 230° |
| 2026-05-07 10:27 | 53.61699 | 9.96612 | 38 ft | 8 kts | 231° |
| 2026-05-07 10:27 | 53.61689 | 9.96525 | 38 ft | 7 kts | 283° |
| 2026-05-07 10:27 | 53.61697 | 9.96480 | 38 ft | 0 kts | 291° |
| 2026-05-07 10:28 | 53.61701 | 9.96468 | 38 ft | 5 kts | 294° |
| 2026-05-07 10:28 | 53.61757 | 9.96422 | 39 ft | 13 kts | 355° |
| 2026-05-07 10:28 | 53.61838 | 9.96427 | 40 ft | 11 kts | 18° |
| 2026-05-07 10:29 | 53.61928 | 9.96581 | 39 ft | 36 kts | 51° |
| 2026-05-07 10:29 | 53.62237 | 9.97210 | 42 ft | 100 kts | 51° |
| 2026-05-07 10:29 | 53.62797 | 9.98340 | 45 ft | 149 kts | 51° |
| 2026-05-07 10:30 | 53.64200 | 10.01247 | 1144 ft | 159 kts | 52° |
| 2026-05-07 10:30 | 53.64928 | 10.02733 | 1587 ft | 173 kts | 52° |
| 2026-05-07 10:30 | 53.65741 | 10.04383 | 1841 ft | 193 kts | 52° |
| 2026-05-07 10:30 | 53.66624 | 10.06172 | 2315 ft | 202 kts | 51° |
| 2026-05-07 10:31 | 53.67532 | 10.08017 | 2885 ft | 205 kts | 51° |
| 2026-05-07 10:31 | 53.68439 | 10.09862 | 3640 ft | 203 kts | 53° |
| 2026-05-07 10:31 | 53.69339 | 10.11691 | 4323 ft | 202 kts | 53° |
| 2026-05-07 10:31 | 53.70241 | 10.13531 | 4920 ft | 205 kts | 52° |
| 2026-05-07 10:32 | 53.71385 | 10.15068 | 5164 ft | 228 kts | 26° |
| 2026-05-07 10:32 | 53.73062 | 10.15308 | 5403 ft | 259 kts | 354° |
| 2026-05-07 10:32 | 53.74861 | 10.14732 | 6044 ft | 266 kts | 352° |
| 2026-05-07 10:32 | 53.76710 | 10.14108 | 6807 ft | 269 kts | 351° |
| 2026-05-07 10:33 | 53.78526 | 10.13493 | 7521 ft | 271 kts | 351° |
| 2026-05-07 10:33 | 53.80387 | 10.12869 | 8229 ft | 274 kts | 350° |
| 2026-05-07 10:33 | 53.82273 | 10.12244 | 8929 ft | 277 kts | 351° |
| 2026-05-07 10:33 | 53.84177 | 10.11614 | 9629 ft | 280 kts | 350° |
| 2026-05-07 10:34 | 53.86099 | 10.10978 | 10254 ft | 285 kts | 349° |
| 2026-05-07 10:34 | 53.88117 | 10.10312 | 10418 ft | 306 kts | 349° |
| 2026-05-07 10:34 | 53.90275 | 10.09601 | 10546 ft | 326 kts | 349° |
| 2026-05-07 10:34 | 53.92540 | 10.08851 | 10928 ft | 335 kts | 349° |
| 2026-05-07 10:35 | 53.94845 | 10.08087 | 11512 ft | 339 kts | 349° |
| 2026-05-07 10:35 | 53.97174 | 10.07316 | 12100 ft | 343 kts | 348° |
| 2026-05-07 10:35 | 53.99528 | 10.06538 | 12678 ft | 347 kts | 348° |
| 2026-05-07 10:35 | 54.01909 | 10.05756 | 13300 ft | 350 kts | 348° |
| 2026-05-07 10:36 | 54.04310 | 10.04965 | 13900 ft | 353 kts | 348° |
| 2026-05-07 10:36 | 54.06735 | 10.04191 | 14420 ft | 356 kts | 349° |
| 2026-05-07 10:36 | 54.09148 | 10.03174 | 14923 ft | 359 kts | 339° |
| 2026-05-07 10:36 | 54.11412 | 10.01360 | 15451 ft | 360 kts | 328° |
| 2026-05-07 10:37 | 54.13411 | 9.98780 | 15947 ft | 362 kts | 315° |
| 2026-05-07 10:37 | 54.15129 | 9.95622 | 16468 ft | 364 kts | 310° |
| 2026-05-07 10:37 | 54.16791 | 9.92445 | 17017 ft | 365 kts | 310° |
| 2026-05-07 10:37 | 54.18493 | 9.89200 | 17521 ft | 367 kts | 310° |
| 2026-05-07 10:38 | 54.20201 | 9.85941 | 18005 ft | 370 kts | 310° |
| 2026-05-07 10:38 | 54.21926 | 9.82650 | 18469 ft | 373 kts | 310° |
| 2026-05-07 10:38 | 54.23671 | 9.79342 | 18874 ft | 376 kts | 312° |
| 2026-05-07 10:38 | 54.25645 | 9.76378 | 19271 ft | 381 kts | 322° |
| 2026-05-07 10:39 | 54.27798 | 9.73709 | 19663 ft | 383 kts | 322° |
| 2026-05-07 10:39 | 54.29961 | 9.71020 | 20056 ft | 385 kts | 322° |
| 2026-05-07 10:39 | 54.32135 | 9.68313 | 20431 ft | 388 kts | 322° |
| 2026-05-07 10:39 | 54.34408 | 9.65802 | 20789 ft | 391 kts | 331° |
| 2026-05-07 10:40 | 54.36845 | 9.64114 | 21141 ft | 396 kts | 342° |
| 2026-05-07 10:40 | 54.39650 | 9.63224 | 21538 ft | 399 kts | 354° |
| 2026-05-07 10:40 | 54.42431 | 9.63338 | 21901 ft | 403 kts | 6° |
| 2026-05-07 10:40 | 54.45200 | 9.64210 | 22255 ft | 406 kts | 9° |
| 2026-05-07 10:41 | 54.47982 | 9.65138 | 22616 ft | 408 kts | 9° |
| 2026-05-07 10:41 | 54.50777 | 9.66066 | 22968 ft | 410 kts | 9° |
| 2026-05-07 10:41 | 54.53590 | 9.66992 | 23324 ft | 413 kts | 9° |
| 2026-05-07 10:41 | 54.56420 | 9.67901 | 23679 ft | 415 kts | 9° |
| 2026-05-07 10:42 | 54.59263 | 9.68799 | 23984 ft | 417 kts | 9° |
| 2026-05-07 10:42 | 54.62123 | 9.69697 | 24318 ft | 418 kts | 9° |
| 2026-05-07 10:42 | 54.64987 | 9.70597 | 24682 ft | 419 kts | 9° |
| 2026-05-07 10:42 | 54.67828 | 9.71429 | 25035 ft | 419 kts | 7° |
| 2026-05-07 10:43 | 54.70714 | 9.72184 | 25367 ft | 420 kts | 7° |
| 2026-05-07 10:43 | 54.73618 | 9.72891 | 25699 ft | 422 kts | 6° |
| 2026-05-07 10:43 | 54.76526 | 9.73588 | 26019 ft | 423 kts | 7° |
| 2026-05-07 10:43 | 54.79444 | 9.74299 | 26344 ft | 424 kts | 7° |
| 2026-05-07 10:44 | 54.82362 | 9.75148 | 26653 ft | 426 kts | 12° |
| 2026-05-07 10:44 | 54.85199 | 9.76675 | 26968 ft | 428 kts | 18° |
| 2026-05-07 10:44 | 54.88017 | 9.78382 | 27281 ft | 429 kts | 18° |
| 2026-05-07 10:44 | 54.90841 | 9.80092 | 27611 ft | 430 kts | 18° |
| 2026-05-07 10:45 | 54.93671 | 9.81806 | 27925 ft | 431 kts | 18° |
| 2026-05-07 10:45 | 54.96509 | 9.83522 | 28228 ft | 432 kts | 18° |
| 2026-05-07 10:45 | 54.99356 | 9.85242 | 28525 ft | 434 kts | 18° |
| 2026-05-07 10:45 | 55.02208 | 9.86963 | 28821 ft | 435 kts | 18° |
| 2026-05-07 10:46 | 55.05073 | 9.88693 | 29100 ft | 436 kts | 18° |
| 2026-05-07 10:46 | 55.07956 | 9.90437 | 29284 ft | 440 kts | 18° |
| 2026-05-07 10:46 | 55.09871 | 9.91600 | 29426 ft | 441 kts | 18° |
| 2026-05-07 10:46 | 55.13720 | 9.93944 | 29784 ft | 442 kts | 18° |
| 2026-05-07 10:47 | 55.16629 | 9.95719 | 30042 ft | 443 kts | 18° |
| 2026-05-07 10:47 | 55.19539 | 9.97498 | 30254 ft | 444 kts | 18° |
| 2026-05-07 10:47 | 55.22460 | 9.99280 | 30430 ft | 445 kts | 18° |
| 2026-05-07 10:47 | 55.25392 | 10.01066 | 30602 ft | 446 kts | 18° |
| 2026-05-07 10:48 | 55.27373 | 10.02275 | 30770 ft | 446 kts | 18° |
| 2026-05-07 10:48 | 55.30301 | 10.04070 | 31010 ft | 445 kts | 18° |
| 2026-05-07 10:48 | 55.33222 | 10.05867 | 31246 ft | 445 kts | 18° |
| 2026-05-07 10:48 | 55.36147 | 10.07667 | 31481 ft | 445 kts | 18° |
| 2026-05-07 10:49 | 55.39025 | 10.09448 | 31731 ft | 444 kts | 18° |
| 2026-05-07 10:49 | 55.41938 | 10.11261 | 31993 ft | 443 kts | 18° |
| 2026-05-07 10:49 | 55.44847 | 10.13069 | 32244 ft | 443 kts | 18° |
| 2026-05-07 10:49 | 55.47750 | 10.14864 | 32508 ft | 442 kts | 18° |
| 2026-05-07 10:50 | 55.50651 | 10.16658 | 32771 ft | 441 kts | 18° |
| 2026-05-07 10:50 | 55.53536 | 10.18450 | 33013 ft | 441 kts | 18° |
| 2026-05-07 10:50 | 55.59260 | 10.22028 | 33098 ft | 431 kts | 18° |
| 2026-05-07 10:51 | 55.64897 | 10.25553 | 33097 ft | 429 kts | 18° |
| 2026-05-07 10:51 | 55.70529 | 10.29064 | 33103 ft | 428 kts | 18° |
| 2026-05-07 10:52 | 55.76152 | 10.32592 | 33100 ft | 428 kts | 18° |
| 2026-05-07 10:52 | 55.81734 | 10.36124 | 33095 ft | 428 kts | 18° |
| 2026-05-07 10:53 | 55.87356 | 10.39690 | 33080 ft | 428 kts | 18° |
| 2026-05-07 10:53 | 55.92956 | 10.43242 | 33108 ft | 426 kts | 18° |
| 2026-05-07 10:54 | 55.98539 | 10.46798 | 33109 ft | 425 kts | 18° |
| 2026-05-07 10:54 | 56.04109 | 10.50351 | 33115 ft | 424 kts | 18° |
| 2026-05-07 10:55 | 56.09642 | 10.53886 | 33111 ft | 424 kts | 18° |
| 2026-05-07 10:55 | 56.15196 | 10.57444 | 32934 ft | 424 kts | 18° |
| 2026-05-07 10:56 | 56.17974 | 10.59243 | 32665 ft | 425 kts | 18° |
| 2026-05-07 10:56 | 56.20751 | 10.61046 | 32397 ft | 424 kts | 18° |
| 2026-05-07 10:56 | 56.23524 | 10.62845 | 32133 ft | 423 kts | 18° |
| 2026-05-07 10:56 | 56.26297 | 10.64640 | 31878 ft | 422 kts | 18° |
| 2026-05-07 10:57 | 56.29019 | 10.66397 | 31618 ft | 421 kts | 18° |
| 2026-05-07 10:57 | 56.31764 | 10.68170 | 31258 ft | 416 kts | 18° |
| 2026-05-07 10:57 | 56.34475 | 10.69930 | 30763 ft | 412 kts | 18° |
| 2026-05-07 10:57 | 56.37163 | 10.71682 | 30258 ft | 408 kts | 18° |
| 2026-05-07 10:58 | 56.39821 | 10.73416 | 29715 ft | 404 kts | 17° |
| 2026-05-07 10:58 | 56.42447 | 10.75133 | 29228 ft | 399 kts | 17° |
| 2026-05-07 10:58 | 56.45041 | 10.76835 | 28743 ft | 393 kts | 17° |
| 2026-05-07 10:58 | 56.47591 | 10.78511 | 28266 ft | 387 kts | 17° |
| 2026-05-07 10:59 | 56.50101 | 10.80162 | 27809 ft | 381 kts | 17° |
| 2026-05-07 10:59 | 56.52571 | 10.81788 | 27366 ft | 375 kts | 17° |
| 2026-05-07 10:59 | 56.55016 | 10.83393 | 26927 ft | 373 kts | 17° |
| 2026-05-07 10:59 | 56.57449 | 10.84990 | 26487 ft | 371 kts | 17° |
| 2026-05-07 11:00 | 56.59867 | 10.86581 | 26062 ft | 369 kts | 17° |
| 2026-05-07 11:00 | 56.62285 | 10.88175 | 25398 ft | 373 kts | 17° |
| 2026-05-07 11:00 | 56.64763 | 10.89805 | 24547 ft | 382 kts | 16° |
| 2026-05-07 11:00 | 56.67244 | 10.91443 | 24099 ft | 378 kts | 17° |
| 2026-05-07 11:01 | 56.69700 | 10.93076 | 23670 ft | 373 kts | 17° |
| 2026-05-07 11:01 | 56.72124 | 10.94703 | 23174 ft | 369 kts | 18° |
| 2026-05-07 11:01 | 56.74385 | 10.96938 | 22130 ft | 384 kts | 36° |
| 2026-05-07 11:01 | 56.76421 | 11.00198 | 21048 ft | 396 kts | 40° |
| 2026-05-07 11:02 | 56.78451 | 11.03587 | 20551 ft | 391 kts | 40° |
| 2026-05-07 11:02 | 56.80423 | 11.06921 | 20121 ft | 384 kts | 40° |
| 2026-05-07 11:02 | 56.82385 | 11.10247 | 19459 ft | 384 kts | 41° |
| 2026-05-07 11:02 | 56.84342 | 11.13563 | 18897 ft | 382 kts | 41° |
| 2026-05-07 11:03 | 56.86286 | 11.16857 | 18373 ft | 379 kts | 41° |
| 2026-05-07 11:03 | 56.88212 | 11.20123 | 17815 ft | 376 kts | 40° |
| 2026-05-07 11:03 | 56.90125 | 11.23363 | 17265 ft | 372 kts | 40° |
| 2026-05-07 11:03 | 56.92020 | 11.26570 | 16716 ft | 369 kts | 40° |
| 2026-05-07 11:04 | 56.93898 | 11.29747 | 16215 ft | 366 kts | 41° |
| 2026-05-07 11:04 | 56.95758 | 11.32898 | 15710 ft | 362 kts | 41° |
| 2026-05-07 11:04 | 56.97569 | 11.35975 | 15364 ft | 355 kts | 41° |
| 2026-05-07 11:04 | 56.99356 | 11.39024 | 15020 ft | 348 kts | 41° |
| 2026-05-07 11:05 | 57.01114 | 11.42027 | 14613 ft | 344 kts | 41° |
| 2026-05-07 11:05 | 57.02855 | 11.44999 | 14205 ft | 340 kts | 41° |
| 2026-05-07 11:05 | 57.04575 | 11.47939 | 13783 ft | 336 kts | 41° |
| 2026-05-07 11:05 | 57.06273 | 11.50844 | 13364 ft | 331 kts | 41° |
| 2026-05-07 11:06 | 57.07945 | 11.53708 | 12957 ft | 326 kts | 41° |
| 2026-05-07 11:06 | 57.09594 | 11.56536 | 12510 ft | 323 kts | 41° |
| 2026-05-07 11:06 | 57.11226 | 11.59341 | 12089 ft | 319 kts | 41° |
| 2026-05-07 11:06 | 57.12839 | 11.62118 | 11697 ft | 315 kts | 41° |
| 2026-05-07 11:07 | 57.14430 | 11.64858 | 11301 ft | 311 kts | 41° |
| 2026-05-07 11:07 | 57.16002 | 11.67571 | 10910 ft | 308 kts | 41° |
| 2026-05-07 11:07 | 57.17555 | 11.70256 | 10522 ft | 304 kts | 41° |
| 2026-05-07 11:07 | 57.19086 | 11.72905 | 10208 ft | 299 kts | 41° |
| 2026-05-07 11:08 | 57.20585 | 11.75497 | 9921 ft | 292 kts | 41° |
| 2026-05-07 11:08 | 57.22058 | 11.78045 | 9786 ft | 290 kts | 41° |
| 2026-05-07 11:08 | 57.23533 | 11.80601 | 9539 ft | 291 kts | 42° |
| 2026-05-07 11:08 | 57.25001 | 11.83152 | 9080 ft | 289 kts | 42° |
| 2026-05-07 11:09 | 57.26464 | 11.85695 | 8602 ft | 289 kts | 42° |
| 2026-05-07 11:09 | 57.27929 | 11.88245 | 8189 ft | 286 kts | 42° |
| 2026-05-07 11:09 | 57.29376 | 11.90773 | 7726 ft | 285 kts | 42° |
| 2026-05-07 11:09 | 57.30812 | 11.93283 | 7275 ft | 285 kts | 42° |
| 2026-05-07 11:10 | 57.32231 | 11.95764 | 6922 ft | 277 kts | 42° |
| 2026-05-07 11:10 | 57.33632 | 11.98175 | 6432 ft | 274 kts | 38° |
| 2026-05-07 11:10 | 57.35205 | 12.00076 | 5781 ft | 268 kts | 26° |
| 2026-05-07 11:10 | 57.36887 | 12.01545 | 5387 ft | 265 kts | 24° |
| 2026-05-07 11:11 | 57.38501 | 12.02941 | 5246 ft | 253 kts | 25° |
| 2026-05-07 11:11 | 57.40046 | 12.04317 | 5141 ft | 240 kts | 26° |
| 2026-05-07 11:11 | 57.41522 | 12.05641 | 5040 ft | 233 kts | 25° |
| 2026-05-07 11:11 | 57.42976 | 12.06943 | 4939 ft | 231 kts | 25° |
| 2026-05-07 11:12 | 57.44427 | 12.08244 | 4830 ft | 232 kts | 25° |
| 2026-05-07 11:12 | 57.45849 | 12.09521 | 4731 ft | 221 kts | 25° |
| 2026-05-07 11:12 | 57.47218 | 12.10750 | 4448 ft | 217 kts | 25° |
| 2026-05-07 11:12 | 57.48566 | 12.11961 | 4138 ft | 213 kts | 25° |
| 2026-05-07 11:13 | 57.49877 | 12.13142 | 3878 ft | 205 kts | 25° |
| 2026-05-07 11:13 | 57.51136 | 12.14273 | 3594 ft | 197 kts | 24° |
| 2026-05-07 11:13 | 57.52337 | 12.15355 | 3326 ft | 188 kts | 23° |
| 2026-05-07 11:13 | 57.53507 | 12.16409 | 3057 ft | 185 kts | 25° |
| 2026-05-07 11:14 | 57.54652 | 12.17444 | 2828 ft | 181 kts | 25° |
| 2026-05-07 11:14 | 57.55757 | 12.18426 | 2555 ft | 173 kts | 24° |
| 2026-05-07 11:14 | 57.56799 | 12.19366 | 2324 ft | 162 kts | 22° |
| 2026-05-07 11:14 | 57.57784 | 12.20256 | 2131 ft | 152 kts | 22° |
| 2026-05-07 11:15 | 57.58751 | 12.21124 | 1927 ft | 156 kts | 25° |
| 2026-05-07 11:15 | 57.59725 | 12.22008 | 1712 ft | 155 kts | 23° |
| 2026-05-07 11:15 | 57.60693 | 12.22884 | 1492 ft | 154 kts | 22° |
| 2026-05-07 11:15 | 57.61654 | 12.23756 | 1280 ft | 153 kts | 21° |
| 2026-05-07 11:16 | 57.62598 | 12.24645 | 1042 ft | 151 kts | 24° |
| 2026-05-07 11:16 | 57.63542 | 12.25500 | 838 ft | 151 kts | 24° |
| 2026-05-07 11:16 | 57.64491 | 12.26356 | 633 ft | 154 kts | 24° |
| 2026-05-07 11:16 | 57.65433 | 12.27211 | 522 ft | 145 kts | 22° |
| 2026-05-07 11:17 | 57.66227 | 12.27922 | 516 ft | 95 kts | 26° |
| 2026-05-07 11:17 | 57.66515 | 12.28189 | 524 ft | 30 kts | 28° |
| 2026-05-07 11:17 | 57.66664 | 12.28425 | 524 ft | 26 kts | 54° |
| 2026-05-07 11:17 | 57.66759 | 12.28684 | 525 ft | 11 kts | 56° |
| 2026-05-07 11:18 | 57.66771 | 12.28719 | 525 ft | 0 kts | 56° |
| 2026-05-07 11:20 | 57.66783 | 12.28749 | 525 ft | 7 kts | 54° |
| 2026-05-07 11:20 | 57.66820 | 12.28831 | 526 ft | 9 kts | 59° |
| 2026-05-07 11:20 | 57.66816 | 12.28939 | 526 ft | 9 kts | 111° |
| 2026-05-07 11:20 | 57.66788 | 12.29048 | 526 ft | 10 kts | 117° |
| 2026-05-07 11:21 | 57.66757 | 12.29161 | 526 ft | 1 kts | 116° |
| 2026-05-07 11:21 | 57.66753 | 12.29179 | 526 ft | 2 kts | 116° |
| 2026-05-07 11:21 | 57.66745 | 12.29207 | 526 ft | 0 kts | 116° |
| 2026-05-07 11:21 | 57.66742 | 12.29218 | 526 ft | 2 kts | 116° |
| 2026-05-07 11:22 | 57.66734 | 12.29248 | 526 ft | 1 kts | 116° |
| 2026-05-07 11:22 | 57.66731 | 12.29259 | 526 ft | 2 kts | 116° |
| 2026-05-07 11:22 | 57.66728 | 12.29272 | 526 ft | 0 kts | 116° |
| 2026-05-07 11:22 | 57.66728 | 12.29273 | 526 ft | 0 kts | 116° |